Time;durP1;ratioP1;P1;durP2;ratioP2;P2;SDS_P1;SDS_P2;PMS_P1;PMS_P2;Temp;Humidity;BMP_temperature;BMP_pressure;BME280_temperature;BME280_humidity;BME280_pressure;Samples;Min_cycle;Max_cycle;Signal;HPM_P1;HPM_P2
2024/04/22 00:02:07;;;;;;;1.77;1.30;;;;;;;7.78;72.64;101915.09;5441645;26;20411;-64
2024/04/22 00:04:34;;;;;;;1.95;1.42;;;;;;;7.72;73.43;101927.06;5464584;26;20075;-65
2024/04/22 00:06:59;;;;;;;1.70;0.90;;;;;;;7.71;73.36;101922.78;5440958;26;20010;-65
2024/04/22 00:09:24;;;;;;;1.17;1.05;;;;;;;7.70;73.42;101920.41;5475754;26;20002;-64
2024/04/22 00:11:50;;;;;;;1.25;0.90;;;;;;;7.66;73.96;101925.59;5471543;26;19999;-64
2024/04/22 00:14:16;;;;;;;1.42;1.27;;;;;;;7.63;73.57;101923.50;5442126;26;19998;-66
2024/04/22 00:16:41;;;;;;;1.92;1.10;;;;;;;7.56;73.26;101925.81;5436108;26;21336;-64
2024/04/22 00:19:07;;;;;;;2.00;1.20;;;;;;;7.47;73.26;101911.53;5449738;26;20021;-65
2024/04/22 00:21:32;;;;;;;3.90;1.50;;;;;;;7.45;74.00;101907.59;5482890;26;20000;-66
2024/04/22 00:23:58;;;;;;;3.85;1.40;;;;;;;7.42;73.76;101910.84;5473266;26;20003;-66
2024/04/22 00:26:23;;;;;;;1.65;1.17;;;;;;;7.34;73.39;101908.91;5465910;26;20001;-65
2024/04/22 00:28:50;;;;;;;3.25;1.40;;;;;;;7.29;73.70;101905.25;5446204;26;20016;-65
2024/04/22 00:31:15;;;;;;;0.65;0.65;;;;;;;7.32;74.05;101907.31;5450012;26;20007;-64
2024/04/22 00:33:41;;;;;;;2.10;1.15;;;;;;;7.26;73.77;101903.16;5440107;26;19994;-65
2024/04/22 00:36:06;;;;;;;1.25;0.90;;;;;;;7.23;74.10;101895.75;5439928;26;20017;-65
2024/04/22 00:38:32;;;;;;;1.55;1.15;;;;;;;7.20;74.74;101898.22;5471231;26;20414;-65
2024/04/22 00:40:58;;;;;;;0.85;0.82;;;;;;;7.17;74.30;101894.25;5470922;26;20015;-65
2024/04/22 00:43:24;;;;;;;4.45;0.98;;;;;;;7.11;74.64;101900.00;5438544;26;20034;-65
2024/04/22 00:45:51;;;;;;;2.40;1.38;;;;;;;7.12;74.62;101889.00;5465655;26;20017;-66
2024/04/22 00:48:18;;;;;;;2.22;1.40;;;;;;;7.07;75.02;101905.19;5463629;26;19999;-65
2024/04/22 00:50:47;;;;;;;0.95;0.63;;;;;;;7.05;74.41;101899.34;5441114;26;20001;-66
2024/04/22 00:53:15;;;;;;;0.75;0.68;;;;;;;7.00;75.23;101896.78;5437217;26;19994;-66
2024/04/22 00:55:41;;;;;;;1.10;1.00;;;;;;;7.01;75.41;101898.34;5469186;26;20012;-66
2024/04/22 00:58:08;;;;;;;0.70;0.70;;;;;;;6.98;75.07;101898.97;5466334;26;20001;-66
2024/04/22 01:00:35;;;;;;;2.20;1.40;;;;;;;6.99;75.29;101899.72;5477505;26;19997;-65
2024/04/22 01:03:01;;;;;;;1.23;1.00;;;;;;;6.94;74.76;101895.28;5439544;26;19999;-66
2024/04/22 01:05:26;;;;;;;1.73;0.85;;;;;;;6.90;75.25;101894.31;5466816;26;20456;-69
2024/04/22 01:07:52;;;;;;;1.20;1.00;;;;;;;6.88;75.20;101895.69;5440976;26;20014;-66
2024/04/22 01:10:18;;;;;;;1.55;0.60;;;;;;;6.81;74.98;101896.09;5443703;26;19994;-66
2024/04/22 01:12:44;;;;;;;1.30;1.20;;;;;;;6.77;74.80;101892.44;5475581;26;20017;-65
2024/04/22 01:15:09;;;;;;;0.98;0.88;;;;;;;6.78;75.37;101890.53;5467957;26;19991;-65
2024/04/22 01:17:37;;;;;;;2.05;1.00;;;;;;;6.71;74.93;101893.63;5467971;26;20003;-65
2024/04/22 01:20:03;;;;;;;1.80;1.30;;;;;;;6.66;75.84;101884.91;5462773;26;20015;-67
2024/04/22 01:22:28;;;;;;;1.30;1.15;;;;;;;6.66;75.69;101890.25;5413378;26;20089;-65
2024/04/22 01:24:55;;;;;;;0.60;0.60;;;;;;;6.65;75.55;101892.13;5432765;26;20344;-66
2024/04/22 01:27:21;;;;;;;2.53;1.27;;;;;;;6.65;74.84;101891.34;5411039;26;20001;-66
2024/04/22 01:29:47;;;;;;;0.88;0.80;;;;;;;6.57;75.33;101892.00;5470876;26;20002;-66
2024/04/22 01:32:12;;;;;;;0.93;0.80;;;;;;;6.58;75.14;101894.38;5421040;26;20116;-67
2024/04/22 01:34:37;;;;;;;0.93;0.88;;;;;;;6.52;75.33;101889.44;5467340;26;20493;-67
2024/04/22 01:37:03;;;;;;;7.43;0.82;;;;;;;6.41;74.99;101888.84;5465973;26;20003;-65
2024/04/22 01:39:28;;;;;;;1.02;0.93;;;;;;;6.34;74.79;101885.75;5441785;26;19998;-65
2024/04/22 01:41:55;;;;;;;0.85;0.70;;;;;;;6.35;75.73;101882.00;5436993;26;20013;-65
2024/04/22 01:44:21;;;;;;;1.20;1.00;;;;;;;6.33;75.63;101882.28;5465659;26;20352;-66
2024/04/22 01:46:46;;;;;;;0.85;0.85;;;;;;;6.28;75.78;101885.06;5436601;26;19998;-66
2024/04/22 01:49:12;;;;;;;1.25;0.93;;;;;;;6.37;75.69;101879.81;5471956;26;20013;-66
2024/04/22 01:51:38;;;;;;;1.50;1.10;;;;;;;6.30;76.11;101882.09;5433747;26;19994;-65
2024/04/22 01:54:03;;;;;;;0.70;0.68;;;;;;;6.27;75.35;101877.34;5419107;26;20460;-65
2024/04/22 01:56:30;;;;;;;0.75;0.75;;;;;;;6.23;75.21;101871.78;5458886;26;19995;-64
2024/04/22 01:58:57;;;;;;;1.17;0.82;;;;;;;6.26;75.21;101883.78;5459523;26;19998;-65
2024/04/22 02:01:23;;;;;;;1.25;0.90;;;;;;;6.25;75.41;101874.19;5438127;26;20451;-64
2024/04/22 02:03:48;;;;;;;0.95;0.90;;;;;;;6.18;75.32;101873.75;5466543;26;20025;-64
2024/04/22 02:06:14;;;;;;;0.73;0.55;;;;;;;6.16;74.95;101870.56;5470385;26;20025;-64
2024/04/22 02:08:39;;;;;;;2.15;1.08;;;;;;;6.13;75.46;101860.47;5449745;26;19998;-69
2024/04/22 02:11:05;;;;;;;1.67;1.25;;;;;;;6.10;75.04;101867.19;5481493;26;20066;-65
2024/04/22 02:13:31;;;;;;;0.75;0.73;;;;;;;6.07;75.19;101865.13;5446391;26;20003;-65
2024/04/22 02:15:56;;;;;;;0.80;0.60;;;;;;;6.06;75.06;101874.22;5441860;26;19998;-65
2024/04/22 02:18:21;;;;;;;4.85;1.17;;;;;;;5.98;75.13;101866.09;5471024;26;20452;-65
2024/04/22 02:20:47;;;;;;;1.40;0.50;;;;;;;5.96;74.98;101865.59;5477038;26;20483;-64
2024/04/22 02:23:12;;;;;;;1.88;0.77;;;;;;;5.93;75.29;101866.16;5465208;26;19995;-66
2024/04/22 02:25:38;;;;;;;1.27;0.73;;;;;;;5.99;75.80;101867.66;5468446;26;20029;-65
2024/04/22 02:28:04;;;;;;;2.58;1.08;;;;;;;5.95;75.86;101862.13;5472310;26;20443;-65
2024/04/22 02:30:29;;;;;;;1.23;0.90;;;;;;;5.93;75.50;101868.84;5471208;26;20420;-65
2024/04/22 02:32:54;;;;;;;0.52;0.52;;;;;;;5.97;75.79;101862.63;5451226;26;19998;-66
2024/04/22 02:35:20;;;;;;;1.63;0.75;;;;;;;5.98;75.25;101858.09;5453090;26;20034;-66
2024/04/22 02:37:45;;;;;;;0.85;0.63;;;;;;;6.01;74.83;101865.50;5446526;26;20501;-65
2024/04/22 02:40:11;;;;;;;1.48;1.08;;;;;;;5.96;75.28;101865.59;5468385;26;19997;-66
2024/04/22 02:42:37;;;;;;;0.98;0.73;;;;;;;5.93;74.59;101860.81;5477618;26;20019;-65
2024/04/22 02:45:02;;;;;;;1.25;0.80;;;;;;;5.91;75.57;101865.66;5477865;26;19998;-65
2024/04/22 02:47:28;;;;;;;0.80;0.80;;;;;;;5.96;75.21;101855.69;5440544;26;19999;-66
2024/04/22 02:49:53;;;;;;;1.02;1.00;;;;;;;5.90;75.12;101859.56;5471268;26;20010;-66
2024/04/22 02:52:19;;;;;;;1.15;0.95;;;;;;;5.94;75.24;101862.44;5449318;26;20087;-67
2024/04/22 02:54:45;;;;;;;0.63;0.63;;;;;;;5.93;75.24;101853.59;5480551;26;20043;-66
2024/04/22 02:57:10;;;;;;;1.52;0.68;;;;;;;5.99;75.76;101855.09;5431492;26;20010;-65
2024/04/22 02:59:36;;;;;;;1.35;0.85;;;;;;;6.00;74.49;101845.97;5461014;26;20017;-65
2024/04/22 03:02:01;;;;;;;0.65;0.65;;;;;;;5.95;74.35;101855.97;5408930;26;20010;-65
2024/04/22 03:04:26;;;;;;;1.02;0.95;;;;;;;5.87;74.74;101852.09;5466154;26;20071;-65
2024/04/22 03:06:52;;;;;;;1.88;1.10;;;;;;;5.87;75.33;101844.09;5470363;26;20070;-66
2024/04/22 03:09:18;;;;;;;1.05;0.98;;;;;;;5.95;75.39;101847.97;5472517;26;20062;-65
2024/04/22 03:11:43;;;;;;;1.73;1.05;;;;;;;5.95;74.92;101840.75;5467129;26;20014;-65
2024/04/22 03:14:09;;;;;;;1.80;0.88;;;;;;;5.94;75.58;101843.72;5467506;26;20014;-65
2024/04/22 03:16:34;;;;;;;0.98;0.70;;;;;;;5.98;76.11;101856.19;5440974;26;20401;-66
2024/04/22 03:19:00;;;;;;;2.22;1.10;;;;;;;6.02;74.88;101837.69;5435545;26;20021;-66
2024/04/22 03:21:25;;;;;;;1.23;0.73;;;;;;;5.97;74.69;101846.59;5441243;26;20013;-65
2024/04/22 03:23:50;;;;;;;1.08;0.80;;;;;;;5.94;74.76;101839.13;5473468;26;20479;-66
2024/04/22 03:26:16;;;;;;;1.10;0.82;;;;;;;5.95;74.04;101834.59;5449696;26;20090;-67
2024/04/22 03:28:41;;;;;;;1.15;0.90;;;;;;;5.93;74.45;101839.44;5475479;26;20472;-66
2024/04/22 03:31:07;;;;;;;2.88;1.52;;;;;;;5.95;74.13;101840.75;5471097;26;20052;-66
2024/04/22 03:33:32;;;;;;;0.90;0.80;;;;;;;5.88;75.07;101844.88;5447436;26;19998;-65
2024/04/22 03:36:01;;;;;;;1.15;0.80;;;;;;;5.88;75.80;101837.66;5453606;26;19998;-65
2024/04/22 03:38:27;;;;;;;1.20;0.73;;;;;;;5.92;75.79;101837.88;5482623;26;20062;-64
2024/04/22 03:40:52;;;;;;;3.28;1.15;;;;;;;5.93;75.53;101840.25;5479102;26;20001;-65
2024/04/22 03:43:17;;;;;;;2.67;0.90;;;;;;;5.84;75.16;101830.53;5453365;26;19994;-65
2024/04/22 03:49:50;;;;;;;0.73;0.55;;;;;;;5.81;75.54;101829.19;5472534;26;19998;-65
2024/04/22 03:51:12;;;;;;;0.80;0.80;;;;;;;5.71;74.74;101826.69;5438093;26;20525;-66
2024/04/22 03:53:38;;;;;;;0.98;0.98;;;;;;;5.68;74.93;101832.63;5482086;26;20013;-66
2024/04/22 03:56:04;;;;;;;0.90;0.60;;;;;;;5.68;75.11;101829.16;5477772;26;20002;-66
2024/04/22 03:58:29;;;;;;;1.92;1.20;;;;;;;5.73;74.63;101829.09;5481525;26;20099;-65
2024/04/22 04:00:54;;;;;;;1.40;0.90;;;;;;;5.72;74.51;101830.16;5471589;26;20009;-66
2024/04/22 04:03:20;;;;;;;0.80;0.80;;;;;;;5.74;74.55;101818.09;5477263;26;20400;-66
2024/04/22 04:05:45;;;;;;;1.15;1.05;;;;;;;5.80;74.37;101822.28;5454601;26;20448;-66
2024/04/22 04:08:11;;;;;;;1.13;0.85;;;;;;;5.83;74.40;101829.72;5470766;26;19998;-66
2024/04/22 04:10:36;;;;;;;1.15;0.80;;;;;;;5.76;74.84;101829.28;5444499;26;20014;-65
2024/04/22 04:13:02;;;;;;;0.60;0.60;;;;;;;5.82;74.92;101821.97;5442631;26;20070;-65
2024/04/22 04:15:30;;;;;;;6.45;1.25;;;;;;;5.94;73.93;101825.00;5485483;26;19995;-65
2024/04/22 04:17:55;;;;;;;1.80;0.90;;;;;;;5.85;73.67;101824.88;5435702;26;19998;-66
2024/04/22 04:20:20;;;;;;;1.02;0.70;;;;;;;5.82;74.40;101832.66;5477022;26;20129;-66
2024/04/22 04:22:46;;;;;;;2.08;1.20;;;;;;;5.79;74.83;101822.56;5455277;26;20413;-65
2024/04/22 04:25:11;;;;;;;0.65;0.65;;;;;;;5.81;73.91;101821.16;5472190;26;20010;-65
2024/04/22 04:27:37;;;;;;;0.93;0.60;;;;;;;5.83;75.10;101826.22;5467547;26;20010;-65
2024/04/22 04:30:03;;;;;;;2.40;1.08;;;;;;;5.92;76.53;101819.94;5475457;26;19998;-66
2024/04/22 04:32:32;;;;;;;1.80;0.93;;;;;;;6.03;76.61;101818.69;5455993;26;19998;-64
2024/04/22 04:34:57;;;;;;;1.77;0.82;;;;;;;6.12;76.63;101818.78;5466797;26;20337;-66
2024/04/22 04:37:23;;;;;;;2.25;1.10;;;;;;;6.17;76.42;101829.38;5484788;26;20035;-65
2024/04/22 04:39:48;;;;;;;1.67;0.90;;;;;;;6.18;75.41;101823.75;5446974;26;20021;-66
2024/04/22 04:42:13;;;;;;;0.60;0.52;;;;;;;6.19;74.97;101817.28;5447829;26;20013;-65
2024/04/22 04:44:39;;;;;;;2.22;0.82;;;;;;;6.23;73.62;101804.16;5434914;26;20350;-66
2024/04/22 04:47:04;;;;;;;2.00;1.10;;;;;;;6.25;73.44;101816.09;5476942;26;20801;-67
2024/04/22 04:49:30;;;;;;;7.40;1.20;;;;;;;6.22;73.02;101814.03;5482319;26;19995;-66
2024/04/22 04:51:55;;;;;;;1.77;1.17;;;;;;;6.19;72.22;101811.16;5438759;26;20010;-66
2024/04/22 04:54:21;;;;;;;1.95;1.15;;;;;;;6.24;74.09;101811.88;5456131;26;19998;-67
2024/04/22 04:56:46;;;;;;;2.60;1.52;;;;;;;6.30;74.13;101813.34;5423101;26;20013;-68
2024/04/22 04:59:12;;;;;;;1.00;0.80;;;;;;;6.33;74.67;101822.66;5443306;26;20014;-66
2024/04/22 05:01:37;;;;;;;2.15;0.95;;;;;;;6.33;74.41;101825.31;5478736;26;20062;-66
2024/04/22 05:04:03;;;;;;;1.83;1.00;;;;;;;6.46;74.52;101815.72;5451341;26;20009;-66
2024/04/22 05:06:29;;;;;;;1.30;1.02;;;;;;;6.53;75.08;101811.56;5452496;26;20049;-66
2024/04/22 05:08:55;;;;;;;2.10;1.42;;;;;;;6.58;74.87;101819.47;5476301;26;20340;-66
2024/04/22 05:11:21;;;;;;;1.95;1.10;;;;;;;6.74;74.54;101823.41;5456019;26;20010;-66
2024/04/22 05:13:47;;;;;;;1.02;1.00;;;;;;;6.79;74.08;101815.31;5486955;26;20012;-66
2024/04/22 05:16:13;;;;;;;1.13;0.80;;;;;;;6.83;72.90;101815.50;5481570;26;20022;-67
2024/04/22 05:18:38;;;;;;;1.20;0.98;;;;;;;6.90;71.84;101811.31;5488994;26;20006;-65
2024/04/22 05:21:04;;;;;;;1.50;1.30;;;;;;;6.93;69.10;101812.59;5477346;26;20075;-66
2024/04/22 05:23:29;;;;;;;1.83;1.10;;;;;;;6.97;67.39;101809.00;5449218;26;20014;-66
2024/04/22 05:25:55;;;;;;;1.00;0.90;;;;;;;6.92;67.26;101803.78;5467743;26;19994;-66
2024/04/22 05:28:23;;;;;;;1.00;0.90;;;;;;;6.87;67.30;101803.84;5446753;26;20080;-65
2024/04/22 05:30:48;;;;;;;6.35;1.40;;;;;;;6.86;68.49;101804.97;5474929;26;20047;-66
2024/04/22 05:36:11;;;;;;;1.10;0.85;;;;;;;6.86;67.86;101801.50;5484581;26;20006;-66
2024/04/22 05:38:41;;;;;;;2.58;1.65;;;;;;;6.90;69.28;101805.16;5433522;26;19998;-66
2024/04/22 05:41:08;;;;;;;1.13;1.02;;;;;;;6.95;69.88;101808.50;5479767;26;20013;-66
2024/04/22 05:43:34;;;;;;;2.47;1.05;;;;;;;7.05;71.35;101805.59;5462916;26;19998;-66
2024/04/22 05:46:00;;;;;;;1.02;0.98;;;;;;;7.14;71.55;101816.41;5429599;26;19997;-66
2024/04/22 05:48:25;;;;;;;1.95;1.42;;;;;;;7.20;68.96;101813.28;5448944;26;20019;-65
2024/04/22 05:50:51;;;;;;;2.13;0.50;;;;;;;7.32;68.27;101814.66;5461139;26;20005;-67
2024/04/22 05:53:16;;;;;;;1.33;0.90;;;;;;;7.42;68.21;101806.34;5446119;26;20023;-68
2024/04/22 05:55:42;;;;;;;3.03;1.00;;;;;;;7.41;67.01;101810.16;5431810;26;20014;-66
2024/04/22 05:58:07;;;;;;;1.33;1.05;;;;;;;7.56;67.03;101804.41;5439535;26;20017;-66
2024/04/22 06:00:33;;;;;;;2.25;1.15;;;;;;;7.73;67.23;101799.16;5473464;26;20003;-65
2024/04/22 06:02:58;;;;;;;2.72;1.38;;;;;;;7.79;66.63;101809.44;5468879;26;20782;-65
2024/04/22 06:05:24;;;;;;;1.25;1.10;;;;;;;7.77;65.99;101802.81;5478216;26;20626;-65
2024/04/22 06:07:50;;;;;;;1.25;1.15;;;;;;;7.86;65.41;101795.59;5422340;26;20010;-65
2024/04/22 06:10:15;;;;;;;2.10;1.10;;;;;;;7.88;64.54;101799.56;5453662;26;19998;-65
2024/04/22 06:12:41;;;;;;;2.08;1.15;;;;;;;7.91;63.82;101798.16;5463617;26;20002;-64
2024/04/22 06:15:06;;;;;;;1.20;1.10;;;;;;;7.89;64.00;101795.00;5438283;26;20022;-64
2024/04/22 06:17:32;;;;;;;1.77;1.45;;;;;;;8.00;63.73;101796.28;5469581;26;20014;-67
2024/04/22 06:19:57;;;;;;;1.33;0.90;;;;;;;8.19;61.84;101796.84;5473543;26;20045;-65
2024/04/22 06:22:23;;;;;;;1.88;1.17;;;;;;;8.28;61.66;101795.03;5465020;26;20013;-64
2024/04/22 06:24:48;;;;;;;2.55;1.10;;;;;;;8.28;60.98;101788.88;5436286;26;19998;-66
2024/04/22 06:27:14;;;;;;;1.33;0.95;;;;;;;8.43;60.37;101791.91;5468665;26;20006;-66
2024/04/22 06:29:39;;;;;;;0.90;0.77;;;;;;;8.68;60.22;101785.81;5438731;26;19998;-65
2024/04/22 06:32:05;;;;;;;1.42;1.00;;;;;;;8.85;57.61;101791.19;5448743;26;20002;-65
2024/04/22 06:34:31;;;;;;;1.95;1.10;;;;;;;8.80;57.60;101787.88;5451256;26;20002;-65
2024/04/22 06:36:56;;;;;;;1.23;0.82;;;;;;;8.79;56.22;101783.59;5468589;26;20116;-65
2024/04/22 06:39:21;;;;;;;2.53;0.98;;;;;;;8.86;55.43;101786.63;5469184;26;19998;-66
2024/04/22 06:41:47;;;;;;;0.70;0.70;;;;;;;8.97;54.75;101783.31;5441828;26;20240;-64
2024/04/22 06:44:12;;;;;;;2.30;0.95;;;;;;;8.96;55.33;101778.25;5441605;26;20026;-63
2024/04/22 06:46:38;;;;;;;0.63;0.63;;;;;;;9.02;54.27;101780.47;5476766;26;20004;-65
2024/04/22 06:49:03;;;;;;;1.60;0.68;;;;;;;8.98;53.38;101786.81;5452449;26;20012;-67
2024/04/22 06:51:29;;;;;;;1.58;1.02;;;;;;;8.97;53.34;101777.16;5474101;26;20400;-63
2024/04/22 06:53:55;;;;;;;1.08;0.75;;;;;;;8.69;52.24;101773.94;5482586;26;19994;-64
2024/04/22 06:56:20;;;;;;;0.70;0.68;;;;;;;8.74;52.52;101773.81;5440769;26;20017;-65
2024/04/22 06:58:46;;;;;;;2.30;0.88;;;;;;;8.78;51.13;101777.47;5451219;26;20067;-63
2024/04/22 07:01:11;;;;;;;0.93;0.77;;;;;;;8.81;51.41;101782.19;5428270;26;19998;-63
2024/04/22 07:03:36;;;;;;;1.70;1.33;;;;;;;8.95;51.20;101774.78;5438894;26;20401;-65
2024/04/22 07:06:02;;;;;;;2.33;0.75;;;;;;;9.12;51.38;101775.91;5476612;26;20039;-64
2024/04/22 07:08:27;;;;;;;1.58;0.85;;;;;;;9.14;51.87;101781.75;5421560;26;20016;-64
2024/04/22 07:10:53;;;;;;;1.27;0.70;;;;;;;9.27;51.67;101780.78;5467688;26;20452;-64
2024/04/22 07:13:18;;;;;;;2.10;0.73;;;;;;;9.34;51.35;101776.50;5448810;26;20460;-64
2024/04/22 07:15:44;;;;;;;0.75;0.70;;;;;;;9.40;50.68;101775.22;5469408;26;19994;-64
2024/04/22 07:18:10;;;;;;;0.45;0.45;;;;;;;9.47;50.42;101777.41;5466381;26;20001;-64
2024/04/22 07:20:36;;;;;;;0.98;0.70;;;;;;;9.50;50.04;101782.16;5466434;26;20003;-65
2024/04/22 07:23:01;;;;;;;0.75;0.73;;;;;;;9.71;49.98;101773.13;5444045;26;20088;-66
2024/04/22 07:25:27;;;;;;;0.47;0.47;;;;;;;9.76;50.15;101778.31;5472092;26;20027;-66
2024/04/22 07:27:52;;;;;;;0.90;0.80;;;;;;;10.09;49.79;101775.81;5473324;26;20042;-66
2024/04/22 07:30:20;;;;;;;0.98;0.60;;;;;;;10.42;48.86;101771.41;5449875;26;20002;-66
2024/04/22 07:32:48;;;;;;;0.80;0.80;;;;;;;10.68;47.57;101774.69;5476407;26;20013;-66
2024/04/22 07:35:14;;;;;;;3.75;0.70;;;;;;;10.97;47.66;101778.47;5472922;26;20472;-67
2024/04/22 07:37:46;;;;;;;2.05;1.00;;;;;;;10.90;46.90;101781.69;5466199;26;20067;-65
2024/04/22 07:40:13;;;;;;;1.02;0.77;;;;;;;10.90;46.07;101785.19;5438305;26;20029;-66
2024/04/22 07:42:39;;;;;;;0.93;0.57;;;;;;;10.78;47.41;101785.09;5471948;26;20480;-65
2024/04/22 07:45:05;;;;;;;0.77;0.55;;;;;;;10.80;46.09;101780.19;5442779;26;20022;-67
2024/04/22 07:47:30;;;;;;;0.93;0.65;;;;;;;10.97;45.37;101781.97;5451256;26;20444;-67
2024/04/22 07:49:55;;;;;;;0.63;0.60;;;;;;;10.94;45.12;101787.22;5469076;26;20042;-66
2024/04/22 07:52:21;;;;;;;0.60;0.50;;;;;;;11.11;45.30;101773.63;5419912;26;20464;-67
2024/04/22 07:54:47;;;;;;;0.50;0.50;;;;;;;11.27;45.18;101791.53;5424563;26;19998;-67
2024/04/22 07:57:12;;;;;;;1.17;0.60;;;;;;;11.14;43.55;101775.63;5451709;26;20106;-67
2024/04/22 07:59:38;;;;;;;0.75;0.75;;;;;;;11.34;43.58;101777.53;5478573;26;20849;-67
2024/04/22 08:02:04;;;;;;;0.50;0.50;;;;;;;11.40;42.65;101781.59;5481244;26;19998;-66
2024/04/22 08:04:30;;;;;;;3.45;0.55;;;;;;;11.57;44.17;101786.81;5455925;26;20488;-66
2024/04/22 08:07:00;;;;;;;0.82;0.70;;;;;;;11.59;42.10;101795.38;5482638;26;20002;-66
2024/04/22 08:09:26;;;;;;;0.60;0.60;;;;;;;11.71;41.64;101782.72;5406504;26;20006;-66
2024/04/22 08:11:54;;;;;;;0.65;0.65;;;;;;;11.94;41.37;101785.00;5475101;26;20006;-67
2024/04/22 08:14:20;;;;;;;1.17;0.80;;;;;;;11.97;41.07;101787.81;5468879;26;19995;-66
2024/04/22 08:16:45;;;;;;;0.40;0.40;;;;;;;11.96;40.69;101788.97;5449155;26;20006;-66
2024/04/22 08:19:11;;;;;;;0.40;0.40;;;;;;;12.21;41.18;101779.75;5469282;26;20447;-65
2024/04/22 08:21:36;;;;;;;0.45;0.45;;;;;;;12.47;40.51;101793.69;5441376;26;20418;-66
2024/04/22 08:24:02;;;;;;;0.57;0.50;;;;;;;12.65;41.44;101789.63;5479836;26;20004;-66
2024/04/22 08:26:27;;;;;;;5.45;0.88;;;;;;;12.62;40.90;101782.19;5464973;26;20010;-67
2024/04/22 08:28:53;;;;;;;3.60;0.85;;;;;;;12.76;38.87;101789.13;5447604;26;20010;-65
2024/04/22 08:31:18;;;;;;;0.50;0.50;;;;;;;13.07;39.06;101783.91;5441986;26;20513;-66
2024/04/22 08:33:43;;;;;;;0.50;0.50;;;;;;;13.10;38.99;101781.31;5415833;26;20009;-67
2024/04/22 08:36:09;;;;;;;0.57;0.50;;;;;;;13.04;37.57;101790.00;5477051;26;20002;-66
2024/04/22 08:38:35;;;;;;;1.05;0.68;;;;;;;13.22;37.58;101794.00;5472530;26;19998;-65
2024/04/22 08:41:01;;;;;;;1.45;0.40;;;;;;;13.34;36.81;101788.53;5477677;26;20008;-65
2024/04/22 08:43:27;;;;;;;2.05;0.50;;;;;;;13.46;36.68;101785.78;5481782;26;20010;-65
2024/04/22 08:45:52;;;;;;;0.68;0.40;;;;;;;13.73;39.05;101779.53;5414583;26;20010;-67
2024/04/22 08:48:18;;;;;;;0.43;0.43;;;;;;;13.97;35.79;101773.19;5444627;26;19998;-65
2024/04/22 08:50:48;;;;;;;0.40;0.40;;;;;;;14.05;34.26;101770.28;5446158;26;20020;-65
2024/04/22 08:53:14;;;;;;;0.20;0.20;;;;;;;14.13;37.36;101776.69;5469398;26;20003;-65
2024/04/22 08:55:39;;;;;;;0.55;0.40;;;;;;;14.33;36.56;101768.28;5473533;26;20341;-65
2024/04/22 08:58:07;;;;;;;0.88;0.50;;;;;;;14.62;37.93;101774.31;5438969;26;20014;-66
2024/04/22 09:00:32;;;;;;;0.98;0.40;;;;;;;14.53;37.95;101771.03;5466824;26;20003;-65
2024/04/22 09:02:58;;;;;;;0.40;0.40;;;;;;;14.82;37.92;101765.88;5440620;26;20066;-65
2024/04/22 09:05:23;;;;;;;1.02;0.52;;;;;;;15.12;38.19;101766.88;5472557;26;20014;-66
2024/04/22 09:08:03;;;;;;;0.52;0.38;;;;;;;15.25;35.05;101762.09;5445840;26;20533;-66
2024/04/22 09:10:30;;;;;;;0.55;0.40;;;;;;;15.56;36.86;101763.88;5471620;26;20137;-63
2024/04/22 09:13:00;;;;;;;1.73;0.47;;;;;;;15.62;36.39;101749.63;5471228;26;20416;-63
2024/04/22 09:15:26;;;;;;;3.03;0.50;;;;;;;15.93;35.63;101757.53;5471470;26;20074;-64
2024/04/22 09:17:53;;;;;;;0.25;0.25;;;;;;;16.03;35.73;101756.13;5472530;26;20022;-64
2024/04/22 09:20:22;;;;;;;0.57;0.50;;;;;;;16.22;38.12;101747.88;5473787;26;20002;-62
2024/04/22 09:22:49;;;;;;;1.23;0.47;;;;;;;16.23;35.31;101752.19;5451592;26;20013;-64
2024/04/22 09:25:15;;;;;;;1.13;0.40;;;;;;;16.37;34.89;101760.56;5468511;26;20061;-64
2024/04/22 09:27:44;;;;;;;3.83;0.50;;;;;;;16.52;36.29;101756.13;5472754;26;20022;-63
2024/04/22 09:30:12;;;;;;;0.45;0.38;;;;;;;16.61;33.69;101753.91;5463848;26;20467;-64
2024/04/22 09:32:42;;;;;;;0.80;0.57;;;;;;;16.58;34.13;101751.94;5472200;26;20017;-64
2024/04/22 09:35:13;;;;;;;1.25;0.60;;;;;;;16.71;34.48;101750.53;5443802;26;20006;-64
2024/04/22 09:37:40;;;;;;;0.67;0.60;;;;;;;16.84;33.66;101758.09;5449030;26;20451;-64
2024/04/22 09:40:09;;;;;;;0.40;0.30;;;;;;;16.65;32.71;101749.28;5466158;26;19995;-63
2024/04/22 09:42:35;;;;;;;0.93;0.60;;;;;;;16.53;35.44;101755.75;5458250;26;20010;-64
2024/04/22 09:45:01;;;;;;;0.68;0.45;;;;;;;16.49;34.38;101757.63;5438745;26;20451;-64
2024/04/22 09:47:28;;;;;;;0.60;0.45;;;;;;;16.78;35.55;101759.56;5468485;26;20005;-63
2024/04/22 09:49:56;;;;;;;0.63;0.50;;;;;;;17.10;35.55;101749.09;5448651;26;20452;-63
2024/04/22 09:52:22;;;;;;;1.90;0.70;;;;;;;16.86;36.05;101755.78;5443641;26;20534;-64
2024/04/22 09:54:49;;;;;;;0.65;0.40;;;;;;;16.77;36.15;101746.34;5467437;26;20017;-65
2024/04/22 09:57:16;;;;;;;0.85;0.40;;;;;;;16.81;34.73;101741.75;5439705;26;20002;-64
2024/04/22 09:59:42;;;;;;;1.10;0.63;;;;;;;17.07;34.97;101742.44;5476818;26;20038;-64
2024/04/22 10:02:08;;;;;;;2.67;0.75;;;;;;;17.43;36.61;101749.06;5418993;26;20017;-66
2024/04/22 10:04:34;;;;;;;2.28;1.30;;;;;;;17.71;34.68;101737.69;5436543;26;20461;-63
2024/04/22 10:07:00;;;;;;;0.52;0.52;;;;;;;18.01;34.48;101751.94;5440603;26;19990;-64
2024/04/22 10:09:27;;;;;;;1.48;0.60;;;;;;;18.22;33.85;101754.03;5466999;26;19995;-63
2024/04/22 10:11:52;;;;;;;5.18;0.63;;;;;;;18.00;33.43;101750.41;5471627;26;20077;-65
2024/04/22 10:14:19;;;;;;;0.50;0.38;;;;;;;17.58;35.67;101750.00;5443740;26;19998;-64
2024/04/22 10:16:59;;;;;;;0.70;0.68;;;;;;;16.98;35.18;101741.16;5472395;26;20074;-64
2024/04/22 10:19:29;;;;;;;1.10;0.50;;;;;;;16.56;34.63;101743.34;5473447;26;20002;-64
2024/04/22 10:22:04;;;;;;;1.27;0.80;;;;;;;16.09;35.10;101741.88;5440298;26;20347;-65
2024/04/22 10:24:38;;;;;;;1.63;0.77;;;;;;;15.87;37.77;101733.75;5478891;26;20388;-65
2024/04/22 10:27:10;;;;;;;2.88;0.60;;;;;;;15.61;38.56;101731.75;5449228;26;20014;-65
2024/04/22 10:29:37;;;;;;;1.60;0.70;;;;;;;15.55;37.82;101726.97;5472873;26;20010;-65
2024/04/22 10:32:03;;;;;;;0.85;0.55;;;;;;;15.24;36.89;101727.94;5449649;26;20013;-65
2024/04/22 10:34:28;;;;;;;0.30;0.30;;;;;;;15.01;38.26;101724.41;5468455;26;20005;-65
2024/04/22 10:36:55;;;;;;;0.35;0.30;;;;;;;14.81;38.51;101723.63;5435780;26;20036;-67
2024/04/22 10:39:20;;;;;;;1.45;0.90;;;;;;;14.74;37.99;101719.97;5469504;26;20013;-67
2024/04/22 10:41:46;;;;;;;1.05;0.47;;;;;;;14.51;38.23;101711.75;5443131;26;20003;-67
2024/04/22 10:44:11;;;;;;;1.55;0.50;;;;;;;14.50;39.04;101712.88;5437425;26;19995;-64
2024/04/22 10:46:38;;;;;;;0.80;0.50;;;;;;;14.78;40.78;101702.66;5472130;26;20018;-65
2024/04/22 10:49:07;;;;;;;0.50;0.50;;;;;;;15.31;41.43;101706.38;5473592;26;19998;-65
2024/04/22 10:51:33;;;;;;;0.60;0.57;;;;;;;15.83;35.26;101711.19;5446564;26;20348;-65
2024/04/22 10:53:58;;;;;;;1.02;0.57;;;;;;;16.42;36.81;101705.03;5462694;26;20006;-64
2024/04/22 10:56:24;;;;;;;0.25;0.25;;;;;;;16.86;33.44;101697.91;5439985;26;20455;-66
2024/04/22 10:58:53;;;;;;;0.35;0.35;;;;;;;17.36;34.22;101697.25;5482082;26;19998;-65
2024/04/22 11:01:20;;;;;;;0.38;0.20;;;;;;;17.85;33.29;101689.53;5465491;26;19999;-64
2024/04/22 11:03:46;;;;;;;0.43;0.28;;;;;;;18.29;32.75;101691.38;5414336;26;19995;-65
2024/04/22 11:06:13;;;;;;;0.80;0.40;;;;;;;18.79;34.20;101685.00;5474310;26;20010;-65
2024/04/22 11:08:40;;;;;;;0.90;0.70;;;;;;;18.99;32.70;101688.19;5443465;26;20010;-65
2024/04/22 11:11:07;;;;;;;0.65;0.55;;;;;;;19.21;31.78;101687.03;5478139;26;20067;-66
2024/04/22 11:13:33;;;;;;;0.68;0.57;;;;;;;19.63;33.40;101681.63;5450877;26;20002;-64
2024/04/22 11:16:09;;;;;;;1.35;0.50;;;;;;;19.87;31.82;101689.06;5453266;26;20002;-64
2024/04/22 11:18:35;;;;;;;1.48;0.88;;;;;;;19.55;30.48;101680.09;5447225;26;20010;-65
2024/04/22 11:21:01;;;;;;;1.17;0.70;;;;;;;19.07;31.79;101676.88;5473751;26;20021;-65
2024/04/22 11:23:26;;;;;;;0.90;0.70;;;;;;;18.52;33.68;101679.06;5448637;26;20017;-65
2024/04/22 11:25:52;;;;;;;0.98;0.60;;;;;;;18.31;33.38;101683.59;5443090;26;20020;-66
2024/04/22 11:28:18;;;;;;;1.55;0.65;;;;;;;17.87;33.72;101675.50;5440051;26;20014;-65
2024/04/22 11:30:44;;;;;;;0.75;0.60;;;;;;;17.37;36.37;101677.03;5418851;26;19998;-66
2024/04/22 11:33:13;;;;;;;0.60;0.50;;;;;;;16.78;39.98;101683.41;5473284;26;19999;-65